Airport View

Enter AWOS ICAO identifier for current METAR.

ex. KFNL

PAFR 251358Z AUTO 32003KT 3/8SM R17/2800FT FG VV001 08/08 A2919

25 Sep 2020 14:18

Frequency: 118.525

Phone: 907-384-0132

Other Area AWOS: PAED - PAMR - PABV - PALH

TAF AMD PAED 251320Z 2513/2616 VRB06KT 9999 VCFG BKN004 BKN015 BKN060 QNH2922INS TEMPO 2514/2518 4800 BR BECMG 2517/2518 VRB06KT 9999 VCSH SCT005 BKN015 BKN040 OVC070 QNH2923INS TEMPO 2518/2523 9000 -DZ BECMG 2600/2601 VRB06KT 9999 VCSH SCT015 BKN030 BKN070 QNH2927INS TX11/2601Z TN07/2516Z